• Join FlightAware (Why Join?)
  • Login
  • US Flag 
12:33PM EDT


 

Airport Tracker/Info


-or-


 

Live Flight TrackerFlight Track Log ✈ SWA1287 ✈ 25-Aug-2013 ✈ KCRP - KHOU

Flight Track Log - Related Links

Times and Time Zones

All times are in EDT time to prevent confusion due to time zone crossing. See the SWA1287 flight status page for this flight to view local times or setup timezone preferences in your user account.

Time Position Orientation Groundspeed Altitude Reporting Facility
EDT Latitude Longitude Course Direction KTS MPH feet Rate Location/Type
11:49AM 27.7581 -97.4928 115° Southeast 167 192 600  Level Houston Center
11:51AM 27.7275 -97.4192 115° Southeast 245 282 4,200 2,460 Climbing Houston Center
11:51AM 27.7742 -97.4103 10° North 259 298 5,600 2,820 Climbing Houston Center
11:53AM 27.8772 -97.3972 North 274 315 10,000 2,640 Climbing Houston Center
11:54AM 27.9725 -97.3844 North 309 356 12,100 2,400 Climbing Houston Center
11:55AM 28.0550 -97.3172 36° Northeast 361 415 15,000 2,640 Climbing Houston Center
11:56AM 28.1478 -97.2781 20° North 367 422 17,600 2,280 Climbing Houston Center
11:57AM 28.2225 -97.1931 45° Northeast 379 436 19,700 2,100 Climbing Houston Center
11:58AM 28.3033 -97.1111 42° Northeast 389 448 22,000 1,740 Climbing Houston Center
11:59AM 28.3836 -97.0236 44° Northeast 400 460 23,300 960 Climbing Houston Center
12:00PM 28.4739 -96.9053 49° Northeast 413 475 24,000 240 Climbing Houston Center
12:01PM 28.5300 -96.7925 60° Northeast 413 475 23,900  Descending Houston Center
12:02PM 28.5878 -96.6844 59° Northeast 404 465 24,000  Climbing Houston Center
12:03PM 28.6711 -96.6028 41° Northeast 397 457 24,000  Level Houston Center
12:04PM 28.7578 -96.5283 37° Northeast 392 451 24,000 -420 Level Houston Center
12:05PM 28.8594 -96.4375 38° Northeast 389 448 23,200 -1,560 Descending Houston Center
12:06PM 28.9486 -96.3572 38° Northeast 406 467 20,800 -2,280 Descending Houston Center
12:07PM 29.0314 -96.2828 38° Northeast 388 447 18,600 -2,100 Descending Houston Center
12:08PM 29.1108 -96.2117 38° Northeast 371 427 16,500 -2,100 Descending Houston Center
12:09PM 29.1875 -96.1419 38° Northeast 358 412 14,300 -1,980 Descending Houston Center
12:10PM 29.2594 -96.0775 38° Northeast 338 389 12,500 -1,200 Descending Houston Center
12:11PM 29.3331 -96.0003 42° Northeast 304 350 11,900 -300 Descending Houston Center
12:12PM 29.3850 -95.9419 44° Northeast 290 334 12,000 -600 Climbing Houston Center
12:13PM 29.4406 -95.8786 45° Northeast 284 327 10,700 -1,020 Descending Houston Center
12:15PM 29.4994 -95.8117 45° Northeast 252 290 10,000 -840 Descending Houston Center
12:16PM 29.5444 -95.7600 45° Northeast 232 267 9,000 -720 Descending Houston Center
12:17PM 29.5161 -95.6969 117° Southeast 239 275 8,600 -780 Descending Houston Center
12:18PM 29.4669 -95.6461 138° Southeast 240 276 7,400 -1,320 Descending Houston Center
12:19PM 29.4419 -95.5811 114° Southeast 230 265 5,900 -1,320 Descending Houston Center
12:20PM 29.4586 -95.4906 78° East 214 246 4,500 -1,020 Descending Houston Center
12:21PM 29.4858 -95.4508 52° Northeast 189 217 3,900 -780 Descending Houston Center
12:22PM 29.5286 -95.4078 41° Northeast 148 170 2,900 -780 Descending Houston Center
12:23PM 29.5506 -95.3828 45° Northeast 157 181 2,300 -720 Descending Houston Center
12:24PM 29.5794 -95.3514 43° Northeast 149 171 1,600 -720 Descending Houston Center
12:25PM 29.6058 -95.3222 44° Northeast 140 161 900 -660 Descending Houston Center
12:26PM 29.6311 -95.2958 42° Northeast 130 150 300 -600 Descending Houston Center
12:28PM 29.6333 -95.2667 115° Southeast  Level FlightAware Approximate